sensor_id;sensor_type;location;lat;lon;timestamp;pressure;altitude;pressure_sealevel;temperature;humidity
65175;BME280;51761;42.126;24.752;2023-09-19T00:01:06;100020.34;;;18.84;72.43
65175;BME280;51761;42.126;24.752;2023-09-19T00:03:37;100010.28;;;18.74;72.26
65175;BME280;51761;42.126;24.752;2023-09-19T00:06:04;100012.97;;;18.77;71.27
65175;BME280;51761;42.126;24.752;2023-09-19T00:08:31;99994.22;;;18.62;71.29
65175;BME280;51761;42.126;24.752;2023-09-19T00:10:56;100024.28;;;18.77;71.12
65175;BME280;51761;42.126;24.752;2023-09-19T00:13:27;100003.19;;;18.69;70.85
65175;BME280;51761;42.126;24.752;2023-09-19T00:15:53;100021.47;;;18.77;70.09
65175;BME280;51761;42.126;24.752;2023-09-19T00:18:21;100025.56;;;18.85;69.68
65175;BME280;51761;42.126;24.752;2023-09-19T00:20:47;99998.81;;;18.77;69.53
65175;BME280;51761;42.126;24.752;2023-09-19T00:23:17;100016.44;;;18.81;68.66
65175;BME280;51761;42.126;24.752;2023-09-19T00:25:42;100017.69;;;18.89;69.10
65175;BME280;51761;42.126;24.752;2023-09-19T00:28:08;100001.66;;;18.86;66.98
65175;BME280;51761;42.126;24.752;2023-09-19T00:30:34;99995.19;;;18.86;68.14
65175;BME280;51761;42.126;24.752;2023-09-19T00:33:00;100010.78;;;18.99;67.42
65175;BME280;51761;42.126;24.752;2023-09-19T00:35:26;100005.44;;;18.92;66.28
65175;BME280;51761;42.126;24.752;2023-09-19T00:37:53;100010.31;;;18.92;66.83
65175;BME280;51761;42.126;24.752;2023-09-19T00:40:19;100003.53;;;18.89;66.96
65175;BME280;51761;42.126;24.752;2023-09-19T00:42:45;100010.00;;;18.90;66.90
65175;BME280;51761;42.126;24.752;2023-09-19T00:45:13;100012.97;;;18.95;67.19
65175;BME280;51761;42.126;24.752;2023-09-19T00:47:41;99993.44;;;18.70;67.42
65175;BME280;51761;42.126;24.752;2023-09-19T00:50:08;99988.91;;;18.73;67.09
65175;BME280;51761;42.126;24.752;2023-09-19T00:52:36;100010.16;;;18.86;67.41
65175;BME280;51761;42.126;24.752;2023-09-19T00:55:05;100003.69;;;18.77;67.02
65175;BME280;51761;42.126;24.752;2023-09-19T00:57:31;100001.78;;;18.74;66.94
65175;BME280;51761;42.126;24.752;2023-09-19T00:59:58;99981.81;;;18.59;67.00
65175;BME280;51761;42.126;24.752;2023-09-19T01:02:25;99992.78;;;18.57;66.78
65175;BME280;51761;42.126;24.752;2023-09-19T01:04:54;100007.88;;;18.54;67.60
65175;BME280;51761;42.126;24.752;2023-09-19T01:07:20;99986.44;;;18.35;67.67
65175;BME280;51761;42.126;24.752;2023-09-19T01:09:47;99998.88;;;18.38;68.14
65175;BME280;51761;42.126;24.752;2023-09-19T01:12:16;99998.72;;;18.41;67.94
65175;BME280;51761;42.126;24.752;2023-09-19T01:17:30;99984.41;;;18.36;68.21
65175;BME280;51761;42.126;24.752;2023-09-19T01:20:15;100001.84;;;18.34;68.69
65175;BME280;51761;42.126;24.752;2023-09-19T01:31:19;100003.00;;;17.85;70.42
65175;BME280;51761;42.126;24.752;2023-09-19T01:34:00;100012.81;;;17.71;70.09
65175;BME280;51761;42.126;24.752;2023-09-19T01:36:31;100000.31;;;17.51;70.75
65175;BME280;51761;42.126;24.752;2023-09-19T01:39:00;100016.28;;;17.45;70.44
65175;BME280;51761;42.126;24.752;2023-09-19T01:42:15;100010.53;;;17.36;70.02
65175;BME280;51761;42.126;24.752;2023-09-19T01:47:22;100010.09;;;17.04;71.22
65175;BME280;51761;42.126;24.752;2023-09-19T01:50:13;100005.81;;;16.99;70.92
65175;BME280;51761;42.126;24.752;2023-09-19T01:53:04;99997.41;;;16.87;71.62
65175;BME280;51761;42.126;24.752;2023-09-19T01:55:37;100004.31;;;16.73;72.53
65175;BME280;51761;42.126;24.752;2023-09-19T01:58:17;99995.38;;;16.87;72.82
65175;BME280;51761;42.126;24.752;2023-09-19T02:00:48;99995.44;;;16.96;72.70
65175;BME280;51761;42.126;24.752;2023-09-19T02:03:15;99996.94;;;16.88;72.41
65175;BME280;51761;42.126;24.752;2023-09-19T02:05:48;99993.22;;;16.91;73.09
65175;BME280;51761;42.126;24.752;2023-09-19T02:08:16;99970.59;;;16.70;73.04
65175;BME280;51761;42.126;24.752;2023-09-19T02:10:43;99979.63;;;16.65;73.04
65175;BME280;51761;42.126;24.752;2023-09-19T02:13:23;99993.31;;;16.88;73.65
65175;BME280;51761;42.126;24.752;2023-09-19T02:15:53;99985.09;;;16.93;72.96
65175;BME280;51761;42.126;24.752;2023-09-19T02:18:18;99986.44;;;16.89;73.32
65175;BME280;51761;42.126;24.752;2023-09-19T02:20:44;99980.81;;;16.89;73.99
65175;BME280;51761;42.126;24.752;2023-09-19T02:23:11;99988.78;;;17.03;73.42
65175;BME280;51761;42.126;24.752;2023-09-19T02:25:38;99966.69;;;16.89;73.20
65175;BME280;51761;42.126;24.752;2023-09-19T02:28:06;99978.78;;;16.89;73.63
65175;BME280;51761;42.126;24.752;2023-09-19T02:30:32;99975.56;;;17.00;73.86
65175;BME280;51761;42.126;24.752;2023-09-19T02:32:57;99984.13;;;17.09;73.77
65175;BME280;51761;42.126;24.752;2023-09-19T02:35:23;99962.38;;;16.97;74.04
65175;BME280;51761;42.126;24.752;2023-09-19T02:37:51;99985.38;;;17.08;73.61
65175;BME280;51761;42.126;24.752;2023-09-19T02:40:17;99986.94;;;17.09;73.85
65175;BME280;51761;42.126;24.752;2023-09-19T02:42:53;99981.88;;;17.04;73.67
65175;BME280;51761;42.126;24.752;2023-09-19T02:45:19;99983.91;;;17.25;73.79
65175;BME280;51761;42.126;24.752;2023-09-19T02:47:45;99961.97;;;17.07;73.76
65175;BME280;51761;42.126;24.752;2023-09-19T02:50:11;99966.09;;;16.94;73.39
65175;BME280;51761;42.126;24.752;2023-09-19T02:52:38;99990.34;;;17.04;72.89
65175;BME280;51761;42.126;24.752;2023-09-19T02:55:03;99976.28;;;16.91;73.75
65175;BME280;51761;42.126;24.752;2023-09-19T02:57:31;99989.88;;;17.05;73.43
65175;BME280;51761;42.126;24.752;2023-09-19T02:59:58;99965.78;;;16.92;73.07
65175;BME280;51761;42.126;24.752;2023-09-19T03:02:24;99977.81;;;17.05;73.41
65175;BME280;51761;42.126;24.752;2023-09-19T03:04:50;99983.31;;;17.08;72.77
65175;BME280;51761;42.126;24.752;2023-09-19T03:07:16;99975.75;;;17.05;73.24
65175;BME280;51761;42.126;24.752;2023-09-19T03:09:42;99979.72;;;17.08;73.68
65175;BME280;51761;42.126;24.752;2023-09-19T03:12:08;99972.63;;;17.03;73.23
65175;BME280;51761;42.126;24.752;2023-09-19T03:14:34;99988.69;;;17.15;73.29
65175;BME280;51761;42.126;24.752;2023-09-19T03:17:01;99979.19;;;17.00;73.73
65175;BME280;51761;42.126;24.752;2023-09-19T03:19:30;99979.44;;;16.93;73.34
65175;BME280;51761;42.126;24.752;2023-09-19T03:21:55;99973.66;;;16.97;73.38
65175;BME280;51761;42.126;24.752;2023-09-19T03:24:22;99954.75;;;16.85;72.08
65175;BME280;51761;42.126;24.752;2023-09-19T03:26:48;99975.91;;;17.02;73.20
65175;BME280;51761;42.126;24.752;2023-09-19T03:29:14;99978.38;;;17.00;73.09
65175;BME280;51761;42.126;24.752;2023-09-19T03:31:41;99970.88;;;16.84;73.08
65175;BME280;51761;42.126;24.752;2023-09-19T03:34:06;99953.53;;;16.73;73.68
65175;BME280;51761;42.126;24.752;2023-09-19T03:36:32;99977.75;;;16.83;73.59
65175;BME280;51761;42.126;24.752;2023-09-19T03:38:57;99986.38;;;16.80;73.57
65175;BME280;51761;42.126;24.752;2023-09-19T03:41:23;99976.66;;;16.81;73.75
65175;BME280;51761;42.126;24.752;2023-09-19T03:43:48;99978.34;;;16.78;73.86
65175;BME280;51761;42.126;24.752;2023-09-19T03:46:14;99953.25;;;16.59;73.63
65175;BME280;51761;42.126;24.752;2023-09-19T03:48:40;99979.28;;;16.63;74.58
65175;BME280;51761;42.126;24.752;2023-09-19T03:51:06;99977.09;;;16.45;74.63
65175;BME280;51761;42.126;24.752;2023-09-19T03:53:31;99986.75;;;16.57;74.56
65175;BME280;51761;42.126;24.752;2023-09-19T03:55:57;99983.94;;;16.57;74.74
65175;BME280;51761;42.126;24.752;2023-09-19T03:58:22;99979.53;;;16.56;74.67
65175;BME280;51761;42.126;24.752;2023-09-19T04:00:48;99983.34;;;16.62;74.60
65175;BME280;51761;42.126;24.752;2023-09-19T04:03:15;99983.25;;;16.65;74.16
65175;BME280;51761;42.126;24.752;2023-09-19T04:05:46;99991.56;;;16.69;74.14
65175;BME280;51761;42.126;24.752;2023-09-19T04:08:13;99997.31;;;16.78;74.34
65175;BME280;51761;42.126;24.752;2023-09-19T04:10:42;99990.00;;;16.68;73.96
65175;BME280;51761;42.126;24.752;2023-09-19T04:13:07;99988.91;;;16.53;74.68
65175;BME280;51761;42.126;24.752;2023-09-19T04:15:33;99997.03;;;16.51;75.09
65175;BME280;51761;42.126;24.752;2023-09-19T04:17:58;99997.69;;;16.67;74.90
65175;BME280;51761;42.126;24.752;2023-09-19T04:20:23;99981.06;;;16.35;75.25
65175;BME280;51761;42.126;24.752;2023-09-19T04:22:49;99988.03;;;16.43;75.16
65175;BME280;51761;42.126;24.752;2023-09-19T04:25:15;99971.78;;;16.10;75.75
65175;BME280;51761;42.126;24.752;2023-09-19T04:27:40;99990.41;;;16.20;75.97
65175;BME280;51761;42.126;24.752;2023-09-19T04:30:07;99998.06;;;16.19;76.07
65175;BME280;51761;42.126;24.752;2023-09-19T04:32:40;99986.88;;;16.16;76.22
65175;BME280;51761;42.126;24.752;2023-09-19T04:35:07;99989.94;;;16.21;75.77
65175;BME280;51761;42.126;24.752;2023-09-19T04:37:43;99995.47;;;16.25;75.00
65175;BME280;51761;42.126;24.752;2023-09-19T04:40:09;99988.34;;;16.20;75.35
65175;BME280;51761;42.126;24.752;2023-09-19T04:42:40;99999.97;;;16.22;75.87
65175;BME280;51761;42.126;24.752;2023-09-19T04:45:07;99988.00;;;16.31;75.50
65175;BME280;51761;42.126;24.752;2023-09-19T04:47:35;99998.31;;;16.37;75.80
65175;BME280;51761;42.126;24.752;2023-09-19T04:50:00;99991.38;;;16.63;74.55
65175;BME280;51761;42.126;24.752;2023-09-19T04:52:26;99991.34;;;16.76;74.47
65175;BME280;51761;42.126;24.752;2023-09-19T04:54:51;99996.47;;;16.90;73.68
65175;BME280;51761;42.126;24.752;2023-09-19T04:57:17;99996.81;;;16.92;73.66
65175;BME280;51761;42.126;24.752;2023-09-19T04:59:43;99990.94;;;16.86;74.23
65175;BME280;51761;42.126;24.752;2023-09-19T05:02:08;99979.22;;;16.88;74.12
65175;BME280;51761;42.126;24.752;2023-09-19T05:04:34;99984.75;;;16.91;73.61
65175;BME280;51761;42.126;24.752;2023-09-19T05:07:00;99985.88;;;17.15;72.21
65175;BME280;51761;42.126;24.752;2023-09-19T05:09:28;99988.47;;;17.22;72.13
65175;BME280;51761;42.126;24.752;2023-09-19T05:11:54;99978.03;;;17.32;71.34
65175;BME280;51761;42.126;24.752;2023-09-19T05:14:19;99993.00;;;17.41;71.95
65175;BME280;51761;42.126;24.752;2023-09-19T05:16:46;99996.06;;;17.55;71.49
65175;BME280;51761;42.126;24.752;2023-09-19T05:19:11;99997.00;;;17.74;70.69
65175;BME280;51761;42.126;24.752;2023-09-19T05:21:37;99973.47;;;17.77;70.92
65175;BME280;51761;42.126;24.752;2023-09-19T05:24:05;99993.06;;;18.02;70.17
65175;BME280;51761;42.126;24.752;2023-09-19T05:26:32;99990.47;;;18.25;69.46
65175;BME280;51761;42.126;24.752;2023-09-19T05:28:57;99983.09;;;18.76;67.58
65175;BME280;51761;42.126;24.752;2023-09-19T05:31:23;99994.72;;;19.68;64.61
65175;BME280;51761;42.126;24.752;2023-09-19T05:33:49;99990.31;;;21.05;59.12
65175;BME280;51761;42.126;24.752;2023-09-19T05:36:15;99996.84;;;22.36;54.69
65175;BME280;51761;42.126;24.752;2023-09-19T05:38:42;99989.75;;;23.15;51.71
65175;BME280;51761;42.126;24.752;2023-09-19T05:41:08;99995.13;;;23.78;49.63
65175;BME280;51761;42.126;24.752;2023-09-19T05:43:35;100004.50;;;24.40;47.51
65175;BME280;51761;42.126;24.752;2023-09-19T05:46:03;100008.06;;;25.08;45.88
65175;BME280;51761;42.126;24.752;2023-09-19T05:48:28;100019.09;;;25.32;45.20
65175;BME280;51761;42.126;24.752;2023-09-19T05:50:54;100019.81;;;25.96;43.22
65175;BME280;51761;42.126;24.752;2023-09-19T05:53:19;100006.03;;;26.60;41.92
65175;BME280;51761;42.126;24.752;2023-09-19T05:55:45;100007.25;;;26.98;40.77
65175;BME280;51761;42.126;24.752;2023-09-19T05:58:11;100017.56;;;27.85;39.27
65175;BME280;51761;42.126;24.752;2023-09-19T06:00:39;99988.84;;;28.20;37.58
65175;BME280;51761;42.126;24.752;2023-09-19T06:03:08;100006.03;;;28.31;37.53
65175;BME280;51761;42.126;24.752;2023-09-19T06:05:33;99998.72;;;28.24;37.70
65175;BME280;51761;42.126;24.752;2023-09-19T06:07:59;99995.56;;;27.93;37.77
65175;BME280;51761;42.126;24.752;2023-09-19T06:10:26;99994.94;;;28.11;37.86
65175;BME280;51761;42.126;24.752;2023-09-19T06:12:53;99980.50;;;27.87;38.33
65175;BME280;51761;42.126;24.752;2023-09-19T06:15:20;99982.38;;;28.14;37.72
65175;BME280;51761;42.126;24.752;2023-09-19T06:17:49;99990.06;;;28.89;36.73
65175;BME280;51761;42.126;24.752;2023-09-19T06:20:15;99971.78;;;29.29;35.34
65175;BME280;51761;42.126;24.752;2023-09-19T06:22:42;99988.94;;;29.76;34.79
65175;BME280;51761;42.126;24.752;2023-09-19T06:25:09;99987.66;;;29.90;34.68
65175;BME280;51761;42.126;24.752;2023-09-19T06:27:37;99989.13;;;29.97;34.75
65175;BME280;51761;42.126;24.752;2023-09-19T06:30:02;99988.91;;;30.13;34.08
65175;BME280;51761;42.126;24.752;2023-09-19T06:32:28;99990.69;;;29.98;33.91
65175;BME280;51761;42.126;24.752;2023-09-19T06:34:54;99995.94;;;29.81;34.25
65175;BME280;51761;42.126;24.752;2023-09-19T06:37:20;99966.56;;;30.32;33.63
65175;BME280;51761;42.126;24.752;2023-09-19T06:39:47;99970.13;;;30.70;33.23
65175;BME280;51761;42.126;24.752;2023-09-19T06:42:16;99991.00;;;31.14;32.85
65175;BME280;51761;42.126;24.752;2023-09-19T06:44:43;99985.22;;;31.14;33.13
65175;BME280;51761;42.126;24.752;2023-09-19T06:47:08;99984.97;;;31.38;32.77
65175;BME280;51761;42.126;24.752;2023-09-19T06:49:35;99987.53;;;30.90;33.72
65175;BME280;51761;42.126;24.752;2023-09-19T06:52:00;99979.00;;;30.40;36.28
65175;BME280;51761;42.126;24.752;2023-09-19T06:54:26;99982.38;;;29.76;35.70
65175;BME280;51761;42.126;24.752;2023-09-19T06:56:56;99978.91;;;29.83;38.12
65175;BME280;51761;42.126;24.752;2023-09-19T06:59:24;99980.75;;;29.80;35.72
65175;BME280;51761;42.126;24.752;2023-09-19T07:01:49;99957.13;;;29.50;36.60
65175;BME280;51761;42.126;24.752;2023-09-19T07:04:17;99948.41;;;28.47;39.64
65175;BME280;51761;42.126;24.752;2023-09-19T07:06:49;99972.88;;;28.24;40.35
65175;BME280;51761;42.126;24.752;2023-09-19T07:09:15;99969.03;;;28.46;39.00
65175;BME280;51761;42.126;24.752;2023-09-19T07:11:41;99967.41;;;28.80;38.67
65175;BME280;51761;42.126;24.752;2023-09-19T07:14:06;99971.75;;;29.10;39.38
65175;BME280;51761;42.126;24.752;2023-09-19T07:16:31;99972.09;;;29.25;37.82
65175;BME280;51761;42.126;24.752;2023-09-19T07:18:57;99968.88;;;28.86;38.09
65175;BME280;51761;42.126;24.752;2023-09-19T07:21:23;99970.03;;;28.54;39.15
65175;BME280;51761;42.126;24.752;2023-09-19T07:23:49;99955.41;;;28.22;41.13
65175;BME280;51761;42.126;24.752;2023-09-19T07:26:16;99973.19;;;28.50;40.66
65175;BME280;51761;42.126;24.752;2023-09-19T07:28:41;99967.72;;;29.00;38.61
65175;BME280;51761;42.126;24.752;2023-09-19T07:31:07;99973.22;;;29.59;37.30
65175;BME280;51761;42.126;24.752;2023-09-19T07:33:35;99970.13;;;30.38;35.84
65175;BME280;51761;42.126;24.752;2023-09-19T07:36:01;99965.22;;;30.78;35.18
65175;BME280;51761;42.126;24.752;2023-09-19T07:38:27;99954.78;;;30.88;34.56
65175;BME280;51761;42.126;24.752;2023-09-19T07:40:53;99941.69;;;31.38;33.67
65175;BME280;51761;42.126;24.752;2023-09-19T07:43:18;99954.19;;;31.54;33.55
65175;BME280;51761;42.126;24.752;2023-09-19T07:45:44;99940.94;;;31.71;33.41
65175;BME280;51761;42.126;24.752;2023-09-19T07:48:09;99947.66;;;31.87;33.30
65175;BME280;51761;42.126;24.752;2023-09-19T07:50:39;99936.19;;;32.15;33.19
65175;BME280;51761;42.126;24.752;2023-09-19T07:53:05;99947.28;;;32.44;31.64
65175;BME280;51761;42.126;24.752;2023-09-19T07:55:31;99941.34;;;32.70;32.15
65175;BME280;51761;42.126;24.752;2023-09-19T07:57:59;99942.81;;;32.43;31.60
65175;BME280;51761;42.126;24.752;2023-09-19T08:00:24;99942.84;;;31.69;33.16
65175;BME280;51761;42.126;24.752;2023-09-19T08:02:50;99927.72;;;31.76;33.03
65175;BME280;51761;42.126;24.752;2023-09-19T08:05:17;99925.63;;;31.97;33.03
65175;BME280;51761;42.126;24.752;2023-09-19T08:07:46;99921.84;;;31.89;32.67
65175;BME280;51761;42.126;24.752;2023-09-19T08:10:15;99910.66;;;31.65;32.79
65175;BME280;51761;42.126;24.752;2023-09-19T08:12:44;99913.69;;;32.00;32.55
65175;BME280;51761;42.126;24.752;2023-09-19T08:15:17;99905.22;;;32.02;32.41
65175;BME280;51761;42.126;24.752;2023-09-19T08:17:47;99918.00;;;32.07;32.23
65175;BME280;51761;42.126;24.752;2023-09-19T08:20:13;99906.03;;;31.82;33.31
65175;BME280;51761;42.126;24.752;2023-09-19T08:22:52;99908.69;;;32.01;33.13
65175;BME280;51761;42.126;24.752;2023-09-19T08:25:20;99904.94;;;31.72;32.82
65175;BME280;51761;42.126;24.752;2023-09-19T08:27:46;99893.97;;;31.58;33.27
65175;BME280;51761;42.126;24.752;2023-09-19T08:30:17;99912.84;;;32.13;32.85
65175;BME280;51761;42.126;24.752;2023-09-19T08:32:43;99878.72;;;31.70;31.86
65175;BME280;51761;42.126;24.752;2023-09-19T08:35:12;99896.34;;;31.80;31.83
65175;BME280;51761;42.126;24.752;2023-09-19T08:37:37;99889.72;;;31.38;31.78
65175;BME280;51761;42.126;24.752;2023-09-19T08:40:03;99883.44;;;31.01;32.26
65175;BME280;51761;42.126;24.752;2023-09-19T08:42:31;99895.13;;;30.83;32.91
65175;BME280;51761;42.126;24.752;2023-09-19T08:44:57;99885.47;;;30.54;32.88
65175;BME280;51761;42.126;24.752;2023-09-19T08:47:50;99884.22;;;30.89;33.63
65175;BME280;51761;42.126;24.752;2023-09-19T08:50:27;99869.22;;;31.03;33.74
65175;BME280;51761;42.126;24.752;2023-09-19T08:53:01;99872.56;;;31.20;33.64
65175;BME280;51761;42.126;24.752;2023-09-19T08:55:31;99869.63;;;31.33;32.89
65175;BME280;51761;42.126;24.752;2023-09-19T08:58:02;99863.56;;;31.23;32.44
65175;BME280;51761;42.126;24.752;2023-09-19T09:00:28;99859.88;;;31.36;32.66
65175;BME280;51761;42.126;24.752;2023-09-19T09:02:56;99868.34;;;31.21;32.97
65175;BME280;51761;42.126;24.752;2023-09-19T09:05:24;99853.44;;;31.63;31.58
65175;BME280;51761;42.126;24.752;2023-09-19T09:07:50;99870.09;;;31.91;32.24
65175;BME280;51761;42.126;24.752;2023-09-19T09:10:22;99867.59;;;31.74;31.68
65175;BME280;51761;42.126;24.752;2023-09-19T09:12:52;99843.16;;;31.96;31.77
65175;BME280;51761;42.126;24.752;2023-09-19T09:15:21;99842.09;;;32.27;30.47
65175;BME280;51761;42.126;24.752;2023-09-19T09:17:49;99832.88;;;32.64;30.73
65175;BME280;51761;42.126;24.752;2023-09-19T09:20:16;99847.09;;;32.26;30.25
65175;BME280;51761;42.126;24.752;2023-09-19T09:22:53;99853.28;;;32.10;31.02
65175;BME280;51761;42.126;24.752;2023-09-19T09:25:19;99836.34;;;32.14;30.79
65175;BME280;51761;42.126;24.752;2023-09-19T09:27:59;99829.44;;;32.37;30.53
65175;BME280;51761;42.126;24.752;2023-09-19T09:30:35;99836.81;;;32.74;30.74
65175;BME280;51761;42.126;24.752;2023-09-19T09:33:09;99839.69;;;32.46;31.36
65175;BME280;51761;42.126;24.752;2023-09-19T09:35:37;99841.00;;;32.65;30.76
65175;BME280;51761;42.126;24.752;2023-09-19T09:38:06;99832.25;;;32.86;30.04
65175;BME280;51761;42.126;24.752;2023-09-19T09:40:50;99833.81;;;32.59;30.93
65175;BME280;51761;42.126;24.752;2023-09-19T09:43:33;99828.91;;;32.18;30.40
65175;BME280;51761;42.126;24.752;2023-09-19T09:46:15;99840.00;;;31.86;31.39
65175;BME280;51761;42.126;24.752;2023-09-19T09:49:02;99817.94;;;31.96;31.36
65175;BME280;51761;42.126;24.752;2023-09-19T09:51:48;99810.88;;;32.05;30.78
65175;BME280;51761;42.126;24.752;2023-09-19T09:54:24;99802.97;;;31.77;31.08
65175;BME280;51761;42.126;24.752;2023-09-19T09:56:57;99797.56;;;32.02;31.61
65175;BME280;51761;42.126;24.752;2023-09-19T10:02:27;99808.44;;;31.68;31.87
65175;BME280;51761;42.126;24.752;2023-09-19T10:04:59;99808.44;;;31.14;32.34
65175;BME280;51761;42.126;24.752;2023-09-19T10:07:32;99807.50;;;30.34;33.28
65175;BME280;51761;42.126;24.752;2023-09-19T10:10:07;99798.88;;;29.76;33.80
65175;BME280;51761;42.126;24.752;2023-09-19T10:12:46;99803.53;;;29.66;35.37
65175;BME280;51761;42.126;24.752;2023-09-19T10:15:18;99793.75;;;29.38;34.88
65175;BME280;51761;42.126;24.752;2023-09-19T10:17:46;99781.47;;;29.56;34.94
65175;BME280;51761;42.126;24.752;2023-09-19T10:20:16;99784.22;;;30.06;34.82
65175;BME280;51761;42.126;24.752;2023-09-19T10:22:59;99787.34;;;30.47;33.93
65175;BME280;51761;42.126;24.752;2023-09-19T10:25:28;99766.19;;;30.91;32.99
65175;BME280;51761;42.126;24.752;2023-09-19T10:27:54;99787.75;;;31.43;33.25
65175;BME280;51761;42.126;24.752;2023-09-19T10:30:22;99782.78;;;31.85;32.61
65175;BME280;51761;42.126;24.752;2023-09-19T10:33:02;99765.97;;;32.04;32.23
65175;BME280;51761;42.126;24.752;2023-09-19T10:35:28;99772.31;;;32.23;31.66
65175;BME280;51761;42.126;24.752;2023-09-19T10:37:59;99762.00;;;32.14;31.58
65175;BME280;51761;42.126;24.752;2023-09-19T10:40:29;99774.63;;;32.24;31.54
65175;BME280;51761;42.126;24.752;2023-09-19T10:43:11;99757.78;;;32.15;31.36
65175;BME280;51761;42.126;24.752;2023-09-19T10:45:38;99757.78;;;32.15;31.07
65175;BME280;51761;42.126;24.752;2023-09-19T10:48:05;99753.03;;;31.97;31.34
65175;BME280;51761;42.126;24.752;2023-09-19T10:51:02;99748.16;;;31.92;31.59
65175;BME280;51761;42.126;24.752;2023-09-19T10:53:44;99747.34;;;31.84;31.64
65175;BME280;51761;42.126;24.752;2023-09-19T10:56:17;99730.06;;;31.92;30.98
65175;BME280;51761;42.126;24.752;2023-09-19T10:58:44;99720.44;;;32.17;31.30
65175;BME280;51761;42.126;24.752;2023-09-19T11:01:11;99733.75;;;32.20;31.43
65175;BME280;51761;42.126;24.752;2023-09-19T11:03:43;99733.31;;;32.44;30.57
65175;BME280;51761;42.126;24.752;2023-09-19T11:06:12;99732.06;;;32.68;30.63
65175;BME280;51761;42.126;24.752;2023-09-19T11:09:02;99730.94;;;32.71;30.82
65175;BME280;51761;42.126;24.752;2023-09-19T11:30:48;99676.28;;;31.81;31.63
65175;BME280;51761;42.126;24.752;2023-09-19T11:33:22;99694.31;;;31.74;31.72
65175;BME280;51761;42.126;24.752;2023-09-19T11:43:54;99669.91;;;31.34;31.67
65175;BME280;51761;42.126;24.752;2023-09-19T11:46:51;99672.25;;;31.36;32.29
65175;BME280;51761;42.126;24.752;2023-09-19T11:49:19;99657.75;;;31.28;32.69
65175;BME280;51761;42.126;24.752;2023-09-19T11:51:50;99656.09;;;31.40;32.67
65175;BME280;51761;42.126;24.752;2023-09-19T11:54:19;99655.69;;;31.36;33.72
65175;BME280;51761;42.126;24.752;2023-09-19T11:56:51;99652.81;;;31.16;33.24
65175;BME280;51761;42.126;24.752;2023-09-19T11:59:27;99649.75;;;30.47;33.43
65175;BME280;51761;42.126;24.752;2023-09-19T12:02:03;99646.91;;;30.34;33.70
65175;BME280;51761;42.126;24.752;2023-09-19T12:04:37;99645.41;;;30.20;33.58
65175;BME280;51761;42.126;24.752;2023-09-19T12:07:13;99643.06;;;30.19;33.29
65175;BME280;51761;42.126;24.752;2023-09-19T12:09:50;99630.25;;;29.81;34.22
65175;BME280;51761;42.126;24.752;2023-09-19T12:12:28;99619.81;;;29.91;33.78
65175;BME280;51761;42.126;24.752;2023-09-19T12:14:56;99614.84;;;30.04;33.43
65175;BME280;51761;42.126;24.752;2023-09-19T12:17:37;99624.56;;;30.61;33.05
65175;BME280;51761;42.126;24.752;2023-09-19T12:20:04;99626.63;;;30.94;32.36
65175;BME280;51761;42.126;24.752;2023-09-19T12:22:44;99624.72;;;30.76;32.33
65175;BME280;51761;42.126;24.752;2023-09-19T12:25:11;99622.53;;;30.69;32.74
65175;BME280;51761;42.126;24.752;2023-09-19T12:27:43;99623.59;;;30.45;32.94
65175;BME280;51761;42.126;24.752;2023-09-19T12:30:10;99631.28;;;30.30;33.28
65175;BME280;51761;42.126;24.752;2023-09-19T12:32:39;99608.66;;;30.34;32.74
65175;BME280;51761;42.126;24.752;2023-09-19T12:35:08;99629.44;;;30.53;33.15
65175;BME280;51761;42.126;24.752;2023-09-19T12:37:45;99623.94;;;30.42;34.49
65175;BME280;51761;42.126;24.752;2023-09-19T12:40:21;99619.91;;;30.24;34.61
65175;BME280;51761;42.126;24.752;2023-09-19T12:42:54;99613.56;;;30.26;34.77
65175;BME280;51761;42.126;24.752;2023-09-19T12:45:30;99613.03;;;30.27;34.89
65175;BME280;51761;42.126;24.752;2023-09-19T12:51:12;99602.91;;;30.88;33.84
65175;BME280;51761;42.126;24.752;2023-09-19T12:53:42;99597.72;;;30.86;32.27
65175;BME280;51761;42.126;24.752;2023-09-19T12:56:10;99604.13;;;30.92;33.38
65175;BME280;51761;42.126;24.752;2023-09-19T12:58:53;99600.28;;;31.10;31.96
65175;BME280;51761;42.126;24.752;2023-09-19T13:01:20;99600.97;;;31.23;31.12
65175;BME280;51761;42.126;24.752;2023-09-19T13:03:45;99591.66;;;30.97;32.07
65175;BME280;51761;42.126;24.752;2023-09-19T13:06:11;99593.41;;;30.80;32.34
65175;BME280;51761;42.126;24.752;2023-09-19T13:08:39;99596.59;;;30.69;33.49
65175;BME280;51761;42.126;24.752;2023-09-19T13:11:16;99592.72;;;30.66;33.65
65175;BME280;51761;42.126;24.752;2023-09-19T13:14:12;99586.66;;;30.57;32.85
65175;BME280;51761;42.126;24.752;2023-09-19T13:17:05;99583.78;;;30.23;34.25
65175;BME280;51761;42.126;24.752;2023-09-19T13:22:44;99577.06;;;30.08;35.17
65175;BME280;51761;42.126;24.752;2023-09-19T13:25:18;99586.34;;;30.14;34.56
65175;BME280;51761;42.126;24.752;2023-09-19T13:27:49;99560.38;;;30.47;34.17
65175;BME280;51761;42.126;24.752;2023-09-19T13:30:20;99579.00;;;30.80;33.37
65175;BME280;51761;42.126;24.752;2023-09-19T13:32:46;99579.63;;;31.06;31.77
65175;BME280;51761;42.126;24.752;2023-09-19T13:35:15;99570.84;;;31.39;31.61
65175;BME280;51761;42.126;24.752;2023-09-19T13:37:42;99570.03;;;31.59;31.19
65175;BME280;51761;42.126;24.752;2023-09-19T13:40:14;99557.88;;;31.61;32.12
65175;BME280;51761;42.126;24.752;2023-09-19T13:42:41;99566.41;;;31.66;31.40
65175;BME280;51761;42.126;24.752;2023-09-19T13:45:07;99566.31;;;31.51;31.42
65175;BME280;51761;42.126;24.752;2023-09-19T13:47:33;99564.94;;;31.45;31.19
65175;BME280;51761;42.126;24.752;2023-09-19T13:49:59;99568.00;;;31.47;31.08